createdAt,value
2018-01-23T00:03:27.759Z,1020.2
2018-01-23T00:08:27.734Z,1020.5
2018-01-23T00:13:27.823Z,1020.3
2018-01-23T00:18:27.807Z,1020.6
2018-01-23T00:23:27.675Z,1020.7
2018-01-23T00:28:27.727Z,1020.7
2018-01-23T00:33:27.707Z,1020.9
2018-01-23T00:38:37.672Z,1020.7
2018-01-23T00:43:27.822Z,1021
2018-01-23T00:48:27.832Z,1021.1
2018-01-23T00:53:27.711Z,1021.2
2018-01-23T00:58:27.887Z,1021.3
2018-01-23T01:03:27.698Z,1021.4
2018-01-23T01:08:27.861Z,1021.6
2018-01-23T01:13:27.706Z,1021.6
2018-01-23T01:18:27.793Z,1021.5
2018-01-23T01:23:27.718Z,1021.5
2018-01-23T01:28:27.885Z,1021.8
2018-01-23T01:33:27.921Z,1021.8
2018-01-23T01:38:27.719Z,1022
2018-01-23T01:43:27.715Z,1022.1
2018-01-23T01:48:27.874Z,1022.3
2018-01-23T01:53:27.948Z,1022.3
2018-01-23T01:58:27.830Z,1022.4
2018-01-23T02:03:27.920Z,1022.4
2018-01-23T02:08:27.715Z,1022.4
2018-01-23T02:13:27.823Z,1022.5
2018-01-23T02:18:27.871Z,1022.7
2018-01-23T02:23:27.784Z,1022.6
2018-01-23T02:28:27.932Z,1022.4
2018-01-23T02:33:27.752Z,1022.4
2018-01-23T02:38:27.761Z,1022.4
2018-01-23T02:43:27.911Z,1022.6
2018-01-23T02:48:27.788Z,1022.6
2018-01-23T02:53:27.780Z,1022.7
2018-01-23T02:58:27.892Z,1022.7
2018-01-23T03:03:27.787Z,1022.9
2018-01-23T03:08:27.759Z,1023
2018-01-23T03:13:27.763Z,1023
2018-01-23T03:18:27.766Z,1022.9
2018-01-23T03:23:27.829Z,1022.9
2018-01-23T03:28:27.796Z,1023
2018-01-23T03:33:27.764Z,1023.1
2018-01-23T03:38:27.959Z,1023.2
2018-01-23T03:43:37.781Z,1023.3
2018-01-23T03:48:27.778Z,1023.3
2018-01-23T03:53:27.796Z,1023.4
2018-01-23T03:58:27.797Z,1023.5
2018-01-23T04:03:28.040Z,1023.5
2018-01-23T04:08:27.818Z,1023.6
2018-01-23T04:13:27.981Z,1023.7
2018-01-23T04:18:28.061Z,1023.8
2018-01-23T04:23:27.866Z,1023.8
2018-01-23T04:28:27.953Z,1023.9
2018-01-23T04:33:27.819Z,1023.9
2018-01-23T04:38:27.795Z,1023.8
2018-01-23T04:43:27.937Z,1023.9
2018-01-23T04:48:27.915Z,1024
2018-01-23T04:53:27.844Z,1024.1
2018-01-23T04:58:27.801Z,1024.1
2018-01-23T05:03:27.826Z,1024.2
2018-01-23T05:08:27.896Z,1024.2
2018-01-23T05:13:28.032Z,1024.3
2018-01-23T05:18:28.034Z,1024.4
2018-01-23T05:23:27.966Z,1024.4
2018-01-23T05:28:30.899Z,1024.5
2018-01-23T05:33:27.832Z,1024.6
2018-01-23T05:38:27.942Z,1024.5
2018-01-23T05:43:27.978Z,1024.5
2018-01-23T05:48:28.017Z,1024.7
2018-01-23T05:53:27.965Z,1024.8
2018-01-23T05:58:27.852Z,1025.1
2018-01-23T06:03:27.867Z,1025.1
2018-01-23T06:08:27.972Z,1025.2
2018-01-23T06:13:27.892Z,1025.4
2018-01-23T06:18:27.979Z,1025.5
2018-01-23T06:23:27.902Z,1025.6
2018-01-23T06:28:27.983Z,1025.6
2018-01-23T06:33:28.099Z,1025.8
2018-01-23T06:38:27.997Z,1025.9
2018-01-23T06:43:27.950Z,1025.9
2018-01-23T06:48:27.949Z,1026
2018-01-23T06:53:27.871Z,1026.2
2018-01-23T06:58:28.097Z,1026.3
2018-01-23T07:03:28.059Z,1026.5
2018-01-23T07:08:27.990Z,1026.6
2018-01-23T07:13:28.011Z,1026.7
2018-01-23T07:18:28.073Z,1026.8
2018-01-23T07:23:38.152Z,1026.9
2018-01-23T07:28:28.100Z,1027.1
2018-01-23T07:33:27.928Z,1027.3
2018-01-23T07:38:28.069Z,1027.3
2018-01-23T07:43:28.060Z,1027.4
2018-01-23T07:48:28.179Z,1027.5
2018-01-23T07:53:27.985Z,1027.5
2018-01-23T07:58:27.937Z,1027.6
2018-01-23T08:03:27.972Z,1027.7
2018-01-23T08:08:28.061Z,1027.8
2018-01-23T08:13:28.092Z,1027.8
2018-01-23T08:18:28.105Z,1027.6
2018-01-23T08:23:28.033Z,1027.7
2018-01-23T08:28:28.056Z,1027.7
2018-01-23T08:33:27.950Z,1027.7
2018-01-23T08:38:27.951Z,1027.7
2018-01-23T08:43:28.061Z,1027.7
2018-01-23T08:48:28.114Z,1027.8
2018-01-23T08:53:27.959Z,1027.8
2018-01-23T08:58:27.962Z,1027.8
2018-01-23T09:03:28.177Z,1027.9
2018-01-23T09:08:28.105Z,1027.9
2018-01-23T09:13:27.941Z,1028.1
2018-01-23T09:18:28.069Z,1028.2
2018-01-23T09:23:28.015Z,1028.3
2018-01-23T09:28:39.004Z,1028.5
2018-01-23T09:33:27.985Z,1028.7
2018-01-23T09:38:28.078Z,1028.6
2018-01-23T09:43:28.147Z,1028.7
2018-01-23T09:48:27.968Z,1028.7
2018-01-23T09:53:28.074Z,1028.8
2018-01-23T09:58:28.256Z,1028.9
2018-01-23T10:03:27.969Z,1028.7
2018-01-23T10:08:28.346Z,1028.8
2018-01-23T10:13:28.160Z,1028.9
2018-01-23T10:18:28.115Z,1028.8
2018-01-23T10:23:28.197Z,1028.9
2018-01-23T10:28:28.166Z,1028.9
2018-01-23T10:33:28.310Z,1029
2018-01-23T10:38:28.016Z,1029
2018-01-23T10:43:28.212Z,1029
2018-01-23T10:48:27.988Z,1029
2018-01-23T10:53:38.101Z,1029.1
2018-01-23T10:58:28.017Z,1029.2
2018-01-23T11:03:28.083Z,1029.3
2018-01-23T11:08:28.134Z,1029.4
2018-01-23T11:13:28.028Z,1029.4
2018-01-23T11:18:28.218Z,1029.5
2018-01-23T11:23:28.092Z,1029.5
2018-01-23T11:28:28.050Z,1029.5
2018-01-23T11:33:28.195Z,1029.5
2018-01-23T11:38:28.032Z,1029.4
2018-01-23T11:43:38.216Z,1029.4
2018-01-23T11:48:28.107Z,1029.4
2018-01-23T11:53:28.201Z,1029.5
2018-01-23T11:58:28.042Z,1029.3
2018-01-23T12:03:28.244Z,1029.4
2018-01-23T12:08:28.148Z,1029.4
2018-01-23T12:13:28.042Z,1029.4
2018-01-23T12:18:28.152Z,1029.4
2018-01-23T12:23:28.061Z,1029.4
2018-01-23T12:28:28.174Z,1029.4
2018-01-23T12:33:28.312Z,1029.3
2018-01-23T12:38:28.124Z,1029.3
2018-01-23T12:43:28.083Z,1029.3
2018-01-23T12:48:28.067Z,1029.3
2018-01-23T12:53:28.067Z,1029.4
2018-01-23T12:58:28.159Z,1029.1
2018-01-23T13:03:28.073Z,1029.3
2018-01-23T13:08:28.314Z,1029.2
2018-01-23T13:13:28.104Z,1029.3
2018-01-23T13:18:28.082Z,1029.2
2018-01-23T13:23:28.109Z,1029.2
2018-01-23T13:28:28.242Z,1029.2
2018-01-23T13:33:29.017Z,1029.2
2018-01-23T13:38:38.066Z,1029.3
2018-01-23T13:43:28.245Z,1029.4
2018-01-23T13:48:28.097Z,1029.3
2018-01-23T13:53:28.119Z,1029.4
2018-01-23T13:58:28.091Z,1029.4
2018-01-23T14:03:28.118Z,1029.5
2018-01-23T14:08:28.156Z,1029.7
2018-01-23T14:13:28.106Z,1029.7
2018-01-23T14:18:28.175Z,1029.7
2018-01-23T14:23:38.104Z,1029.8
2018-01-23T14:28:28.185Z,1029.8
2018-01-23T14:33:28.130Z,1029.7
2018-01-23T14:38:28.148Z,1029.7
2018-01-23T14:43:28.129Z,1029.7
2018-01-23T14:48:28.130Z,1029.7
2018-01-23T14:53:28.262Z,1029.8
2018-01-23T14:58:28.143Z,1029.7
2018-01-23T15:03:28.257Z,1029.8
2018-01-23T15:08:28.244Z,1029.7
2018-01-23T15:13:28.371Z,1029.9
2018-01-23T15:18:28.204Z,1029.8
2018-01-23T15:23:28.155Z,1030
2018-01-23T15:28:28.399Z,1030
2018-01-23T15:33:28.239Z,1030
2018-01-23T15:38:28.383Z,1030.1
2018-01-23T15:43:28.203Z,1030.1
2018-01-23T15:48:28.227Z,1030.1
2018-01-23T15:53:28.201Z,1030.1
2018-01-23T15:58:28.284Z,1030.2
2018-01-23T16:03:28.199Z,1030.2
2018-01-23T16:08:28.247Z,1030.3
2018-01-23T16:13:28.266Z,1030.4
2018-01-23T16:18:28.237Z,1030.3
2018-01-23T16:23:28.436Z,1030.4
2018-01-23T16:28:28.576Z,1030.5
2018-01-23T16:33:30.111Z,1030.4
2018-01-23T16:38:28.567Z,1030.4
2018-01-23T16:43:31.797Z,1030.4
2018-01-23T16:48:38.270Z,1030.5
2018-01-23T16:53:28.323Z,1030.5
2018-01-23T16:58:28.230Z,1030.6
2018-01-23T17:04:03.955Z,1030.6
2018-01-23T17:08:28.596Z,1030.8
2018-01-23T17:13:38.576Z,1030.8
2018-01-23T17:18:28.263Z,1030.8
2018-01-23T17:23:28.394Z,1030.7
2018-01-23T17:28:28.272Z,1030.8
2018-01-23T17:33:28.301Z,1030.9
2018-01-23T17:38:28.261Z,1030.9
2018-01-23T17:43:28.414Z,1030.9
2018-01-23T17:48:28.447Z,1030.9
2018-01-23T17:53:28.245Z,1031
2018-01-23T17:58:28.399Z,1031
2018-01-23T18:03:28.409Z,1031
2018-01-23T18:08:28.278Z,1031
2018-01-23T18:13:28.474Z,1031
2018-01-23T18:18:28.568Z,1031
2018-01-23T18:23:28.281Z,1031
2018-01-23T18:28:28.263Z,1031.1
2018-01-23T18:33:28.406Z,1031
2018-01-23T18:38:28.307Z,1031.1
2018-01-23T18:43:28.348Z,1031.1
2018-01-23T18:48:31.468Z,1031
2018-01-23T18:53:28.266Z,1031
2018-01-23T18:58:28.438Z,1031
2018-01-23T19:03:29.594Z,1031.1
2018-01-23T19:08:28.446Z,1031.1
2018-01-23T19:13:28.459Z,1031.1
2018-01-23T19:18:28.588Z,1031.1
2018-01-23T19:23:28.542Z,1031.1
2018-01-23T19:28:28.454Z,1031.1
2018-01-23T19:33:28.563Z,1031
2018-01-23T19:38:28.635Z,1031
2018-01-23T19:43:28.683Z,1030.9
2018-01-23T19:48:28.624Z,1030.9
2018-01-23T19:53:28.566Z,1030.9
2018-01-23T19:58:28.458Z,1031
2018-01-23T20:03:28.440Z,1031.1
2018-01-23T20:08:28.567Z,1031.2
2018-01-23T20:13:28.466Z,1031.1
2018-01-23T20:18:28.777Z,1031.1
2018-01-23T20:23:28.830Z,1031.1
2018-01-23T20:28:28.645Z,1031.2
2018-01-23T20:33:28.621Z,1031.1
2018-01-23T20:38:28.710Z,1031.1
2018-01-23T20:43:28.505Z,1031
2018-01-23T20:48:28.606Z,1030.9
2018-01-23T20:53:29.172Z,1031.1
2018-01-23T20:58:28.639Z,1030.9
2018-01-23T21:03:28.534Z,1030.9
2018-01-23T21:08:28.593Z,1030.9
2018-01-23T21:13:29.026Z,1030.8
2018-01-23T21:18:29.186Z,1030.9
2018-01-23T21:23:28.569Z,1030.9
2018-01-23T21:28:38.504Z,1030.8
2018-01-23T21:33:28.552Z,1030.8
2018-01-23T21:38:28.675Z,1030.9
2018-01-23T21:43:28.544Z,1030.7
2018-01-23T21:48:28.529Z,1030.7
2018-01-23T21:53:28.702Z,1030.5
2018-01-23T21:58:28.664Z,1030.7
2018-01-23T22:03:28.545Z,1030.6
2018-01-23T22:08:28.795Z,1030.7
2018-01-23T22:13:28.720Z,1030.7
2018-01-23T22:18:28.648Z,1030.7
2018-01-23T22:23:28.679Z,1030.7
2018-01-23T22:28:38.642Z,1030.8
2018-01-23T22:33:28.638Z,1030.7
2018-01-23T22:38:28.691Z,1030.7
2018-01-23T22:43:28.683Z,1030.8
2018-01-23T22:48:28.528Z,1030.8
2018-01-23T22:53:28.555Z,1030.8
2018-01-23T22:58:28.521Z,1030.8
2018-01-23T23:03:28.733Z,1030.7
2018-01-23T23:08:38.710Z,1030.7
2018-01-23T23:13:28.521Z,1030.8
2018-01-23T23:18:28.722Z,1030.8
2018-01-23T23:23:38.508Z,1030.7
2018-01-23T23:28:28.637Z,1030.7
2018-01-23T23:33:28.691Z,1030.7
2018-01-23T23:38:28.696Z,1030.7
2018-01-23T23:43:28.552Z,1030.6
2018-01-23T23:48:28.541Z,1030.5
2018-01-23T23:53:28.702Z,1030.6
2018-01-23T23:58:28.544Z,1030.6
